Time,TemperatureF,DewpointF,PressureIn,WindDirection,WindDirectionDegrees,WindSpeedMPH,WindSpeedGustMPH,Humidity,HourlyPrecipIn,Conditions,Clouds,dailyrainin,SoftwareType,DateUTC
2013-04-06 00:04:00,46.9,21.8,29.95,NNW,341,6.9,16.8,37,0.00,,,0.00,WUHU21623XXSP,2013-04-06 04:04:00,
2013-04-06 00:08:00,46.6,22.2,29.96,North,350,6.9,8.5,38,0.00,,,0.00,WUHU21623XXSP,2013-04-06 04:08:00,
2013-04-06 00:10:00,46.6,22.2,29.96,North,3,5.4,8.5,38,0.00,,,0.00,WUHU21623XXSP,2013-04-06 04:10:00,
2013-04-06 00:12:00,46.6,22.2,29.96,North,3,5.4,8.5,38,0.00,,,0.00,WUHU21623XXSP,2013-04-06 04:12:00,
2013-04-06 00:21:00,46.2,21.9,29.96,NW,318,5.6,18.1,38,0.00,,,0.00,WUHU21623XXSP,2013-04-06 04:21:00,
2013-04-06 00:27:00,46.0,21.7,29.96,NW,318,8.7,18.1,38,0.00,,,0.00,WUHU21623XXSP,2013-04-06 04:27:00,
2013-04-06 00:33:00,46.0,21.7,29.96,NNW,341,8.3,9.4,38,0.00,,,0.00,WUHU21623XXSP,2013-04-06 04:33:00,
2013-04-06 00:40:00,45.7,21.4,29.96,NW,318,10.1,10.1,38,0.00,,,0.00,WUHU21623XXSP,2013-04-06 04:40:00,
2013-04-06 00:46:00,45.7,21.4,29.96,NNW,341,11.4,11.4,38,0.00,,,0.00,WUHU21623XXSP,2013-04-06 04:46:00,
2013-04-06 00:53:00,45.3,21.1,29.97,North,3,9.8,13.9,38,0.00,,,0.00,WUHU21623XXSP,2013-04-06 04:53:00,
2013-04-06 00:59:00,45.0,20.7,29.97,NNW,341,8.7,13.9,38,0.00,,,0.00,WUHU21623XXSP,2013-04-06 04:59:00,
2013-04-06 01:05:00,45.0,21.4,29.98,NNW,341,8.9,17.4,39,0.00,,,0.00,WUHU21623XXSP,2013-04-06 05:05:00,
2013-04-06 01:12:00,44.8,21.2,29.99,WNW,297,5.9,8.9,39,0.00,,,0.00,WUHU21623XXSP,2013-04-06 05:12:00,
2013-04-06 01:18:00,44.4,20.9,29.99,NNW,341,16.6,16.6,39,0.00,,,0.00,WUHU21623XXSP,2013-04-06 05:18:00,
2013-04-06 01:25:00,44.4,21.6,29.99,NW,318,8.3,16.6,40,0.00,,,0.00,WUHU21623XXSP,2013-04-06 05:25:00,
2013-04-06 01:31:00,44.4,21.6,30.00,NNW,341,8.7,11.9,40,0.00,,,0.00,WUHU21623XXSP,2013-04-06 05:31:00,
2013-04-06 01:38:00,44.2,21.4,30.00,North,3,5.6,11.9,40,0.00,,,0.00,WUHU21623XXSP,2013-04-06 05:38:00,
2013-04-06 01:44:00,44.2,21.4,30.00,NNW,341,6.0,7.8,40,0.00,,,0.00,WUHU21623XXSP,2013-04-06 05:44:00,
2013-04-06 01:51:00,44.2,21.4,30.01,NW,318,6.5,7.4,41,0.00,,,0.00,WUHU21623XXSP,2013-04-06 05:51:00,
2013-04-06 01:57:00,44.2,22.0,30.01,NNW,341,4.9,7.4,41,0.00,,,0.00,WUHU21623XXSP,2013-04-06 05:57:00,
2013-04-06 02:04:00,43.9,20.4,30.01,North,3,19.5,19.5,39,0.00,,,0.00,WUHU21623XXSP,2013-04-06 06:04:00,
2013-04-06 02:10:00,43.7,20.3,30.01,NNW,341,3.4,19.5,39,0.00,,,0.00,WUHU21623XXSP,2013-04-06 06:10:00,
2013-04-06 02:16:00,43.5,20.1,30.01,NW,318,10.7,10.7,39,0.00,,,0.00,WUHU21623XXSP,2013-04-06 06:16:00,
2013-04-06 02:23:00,43.3,19.9,30.02,NW,318,15.7,15.7,39,0.00,,,0.00,WUHU21623XXSP,2013-04-06 06:23:00,
2013-04-06 02:29:00,43.0,19.6,30.02,NW,318,13.9,15.7,39,0.00,,,0.00,WUHU21623XXSP,2013-04-06 06:29:00,
2013-04-06 02:38:00,43.0,19.6,30.02,NNW,341,6.0,13.9,39,0.00,,,0.00,WUHU21623XXSP,2013-04-06 06:38:00,
2013-04-06 02:44:00,43.0,19.6,30.02,NW,318,11.6,11.6,39,0.00,,,0.00,WUHU21623XXSP,2013-04-06 06:44:00,
2013-04-06 02:51:00,42.6,19.3,30.02,NNW,341,8.9,11.6,39,0.00,,,0.00,WUHU21623XXSP,2013-04-06 06:51:00,
2013-04-06 02:57:00,42.6,19.3,30.02,NNW,341,4.7,8.9,39,0.00,,,0.00,WUHU21623XXSP,2013-04-06 06:57:00,
2013-04-06 03:04:00,42.6,19.3,30.03,NNW,341,5.6,6.7,39,0.00,,,0.00,WUHU21623XXSP,2013-04-06 07:04:00,
2013-04-06 03:10:00,42.6,19.3,30.03,NW,318,7.4,9.6,39,0.00,,,0.00,WUHU21623XXSP,2013-04-06 07:10:00,
2013-04-06 03:17:00,42.6,19.3,30.04,NNW,341,2.9,9.6,39,0.00,,,0.00,WUHU21623XXSP,2013-04-06 07:17:00,
2013-04-06 03:23:00,42.4,19.3,30.04,North,3,7.2,7.2,39,0.00,,,0.00,WUHU21623XXSP,2013-04-06 07:23:00,
2013-04-06 03:29:00,42.4,19.1,30.04,NNW,341,7.8,7.8,39,0.00,,,0.00,WUHU21623XXSP,2013-04-06 07:29:00,
2013-04-06 03:36:00,42.4,19.1,30.04,NNW,341,2.9,7.8,39,0.00,,,0.00,WUHU21623XXSP,2013-04-06 07:36:00,
2013-04-06 03:42:00,42.4,19.1,30.04,NNW,341,3.4,4.5,39,0.00,,,0.00,WUHU21623XXSP,2013-04-06 07:42:00,
2013-04-06 03:49:00,42.4,19.1,30.05,NW,318,7.4,8.7,39,0.00,,,0.00,WUHU21623XXSP,2013-04-06 07:49:00,
2013-04-06 03:55:00,42.4,19.1,30.05,WNW,296,3.8,13.0,39,0.00,,,0.00,WUHU21623XXSP,2013-04-06 07:55:00,
2013-04-06 04:02:00,42.1,18.8,30.06,NNW,341,6.5,13.0,39,0.00,,,0.00,WUHU21623XXSP,2013-04-06 08:02:00,
2013-04-06 04:08:00,41.7,18.5,30.06,NNW,341,7.8,11.4,39,0.00,,,0.00,WUHU21623XXSP,2013-04-06 08:08:00,
2013-04-06 04:14:00,41.5,18.3,30.07,NW,318,14.1,14.1,39,0.00,,,0.00,WUHU21623XXSP,2013-04-06 08:14:00,
2013-04-06 04:21:00,41.4,18.2,30.07,NNW,341,7.8,14.1,39,0.00,,,0.00,WUHU21623XXSP,2013-04-06 08:21:00,
2013-04-06 04:27:00,41.2,18.7,30.07,NNW,341,11.2,11.2,40,0.00,,,0.00,WUHU21623XXSP,2013-04-06 08:27:00,
2013-04-06 04:34:00,41.2,18.7,30.08,NW,318,7.2,11.2,40,0.00,,,0.00,WUHU21623XXSP,2013-04-06 08:34:00,
2013-04-06 04:40:00,41.2,18.7,30.08,NW,318,3.6,9.2,40,0.00,,,0.00,WUHU21623XXSP,2013-04-06 08:40:00,
2013-04-06 04:47:00,41.2,18.7,30.08,NW,318,2.9,5.4,40,0.00,,,0.00,WUHU21623XXSP,2013-04-06 08:47:00,
2013-04-06 04:53:00,41.2,18.7,30.09,NNW,341,2.0,11.2,40,0.00,,,0.00,WUHU21623XXSP,2013-04-06 08:53:00,
2013-04-06 05:00:00,41.2,18.7,30.09,NNW,341,2.5,10.7,40,0.00,,,0.00,WUHU21623XXSP,2013-04-06 09:00:00,
2013-04-06 05:06:00,41.2,18.7,30.10,NW,318,6.0,7.2,40,0.00,,,0.00,WUHU21623XXSP,2013-04-06 09:06:00,
2013-04-06 05:13:00,41.2,19.2,30.09,WNW,296,8.1,8.1,41,0.00,,,0.00,WUHU21623XXSP,2013-04-06 09:13:00,
2013-04-06 05:19:00,41.2,19.2,30.10,NW,318,1.6,8.1,41,0.00,,,0.00,WUHU21623XXSP,2013-04-06 09:19:00,
2013-04-06 05:25:00,41.0,19.0,30.10,NNW,341,6.3,6.3,41,0.00,,,0.00,WUHU21623XXSP,2013-04-06 09:25:00,
2013-04-06 05:32:00,40.8,18.9,30.11,NNW,341,4.5,7.4,41,0.00,,,0.00,WUHU21623XXSP,2013-04-06 09:32:00,
2013-04-06 05:40:00,40.8,18.9,30.11,West,273,3.1,8.7,41,0.00,,,0.00,WUHU21623XXSP,2013-04-06 09:40:00,
2013-04-06 05:47:00,40.6,19.2,30.11,NNW,341,5.8,6.7,42,0.00,,,0.00,WUHU21623XXSP,2013-04-06 09:47:00,
2013-04-06 05:53:00,40.5,19.1,30.12,North,3,7.2,7.2,42,0.00,,,0.00,WUHU21623XXSP,2013-04-06 09:53:00,
2013-04-06 06:00:00,40.5,19.1,30.12,North,3,3.1,7.2,42,0.00,,,0.00,WUHU21623XXSP,2013-04-06 10:00:00,
2013-04-06 06:06:00,40.5,19.1,30.12,WNW,296,2.9,9.8,42,0.00,,,0.00,WUHU21623XXSP,2013-04-06 10:06:00,
2013-04-06 06:13:00,40.5,19.1,30.13,NW,318,5.1,5.4,42,0.00,,,0.00,WUHU21623XXSP,2013-04-06 10:13:00,
2013-04-06 06:19:00,40.3,19.1,30.13,NNW,341,7.6,7.6,42,0.00,,,0.00,WUHU21623XXSP,2013-04-06 10:19:00,
2013-04-06 06:25:00,40.3,19.6,30.14,NNW,341,5.4,7.6,43,0.00,,,0.00,WUHU21623XXSP,2013-04-06 10:25:00,
2013-04-06 06:32:00,40.3,19.4,30.14,North,3,4.7,5.4,43,0.00,,,0.00,WUHU21623XXSP,2013-04-06 10:32:00,
2013-04-06 06:38:00,40.1,19.3,30.15,NW,318,2.2,5.1,43,0.00,,,0.00,WUHU21623XXSP,2013-04-06 10:38:00,
2013-04-06 06:45:00,40.1,19.3,30.15,NNW,341,7.8,7.8,43,0.00,,,0.00,WUHU21623XXSP,2013-04-06 10:45:00,
2013-04-06 06:51:00,39.9,19.1,30.15,North,3,6.7,7.8,43,0.00,,,0.00,WUHU21623XXSP,2013-04-06 10:51:00,
2013-04-06 06:57:00,39.9,19.6,30.17,NNW,341,2.9,6.7,44,0.00,,,0.00,WUHU21623XXSP,2013-04-06 10:57:00,
2013-04-06 07:04:00,39.9,19.6,30.16,NNW,341,3.4,4.3,44,0.00,,,0.00,WUHU21623XXSP,2013-04-06 11:04:00,
2013-04-06 07:10:00,40.1,19.8,30.17,NW,318,6.3,6.3,44,0.00,,,0.00,WUHU21623XXSP,2013-04-06 11:10:00,
2013-04-06 07:17:00,40.3,19.9,30.18,NW,318,4.0,6.3,44,0.00,,,0.00,WUHU21623XXSP,2013-04-06 11:17:00,
2013-04-06 07:23:00,40.5,20.1,30.19,NNW,341,3.8,5.4,44,0.00,,,0.00,WUHU21623XXSP,2013-04-06 11:23:00,
2013-04-06 07:30:00,40.6,20.3,30.19,NNW,341,3.1,5.6,44,0.00,,,0.00,WUHU21623XXSP,2013-04-06 11:30:00,
2013-04-06 07:36:00,40.6,20.8,30.19,North,3,7.4,7.4,45,0.00,,,0.00,WUHU21623XXSP,2013-04-06 11:36:00,
2013-04-06 07:42:00,40.8,20.9,30.20,NE,48,2.5,7.4,45,0.00,,,0.00,WUHU21623XXSP,2013-04-06 11:42:00,
2013-04-06 07:49:00,40.8,20.9,30.20,NNE,26,4.7,7.8,45,0.00,,,0.00,WUHU21623XXSP,2013-04-06 11:49:00,
2013-04-06 07:55:00,40.8,20.9,30.20,North,3,4.9,15.7,45,0.00,,,0.00,WUHU21623XXSP,2013-04-06 11:55:00,
2013-04-06 08:02:00,40.8,21.1,30.20,NNW,341,6.9,15.7,45,0.00,,,0.00,WUHU21623XXSP,2013-04-06 12:02:00,
2013-04-06 08:08:00,41.0,21.1,30.20,North,3,5.8,7.4,45,0.00,,,0.00,WUHU21623XXSP,2013-04-06 12:08:00,
2013-04-06 08:15:00,41.0,21.1,30.21,NNW,341,7.4,13.0,45,0.00,,,0.00,WUHU21623XXSP,2013-04-06 12:15:00,
2013-04-06 08:21:00,41.2,21.3,30.22,NNW,341,4.7,13.0,45,0.00,,,0.00,WUHU21623XXSP,2013-04-06 12:21:00,
2013-04-06 08:27:00,41.4,21.5,30.22,NNW,341,4.7,15.2,45,0.00,,,0.00,WUHU21623XXSP,2013-04-06 12:27:00,
2013-04-06 08:34:00,41.5,21.1,30.22,WNW,296,6.9,13.4,44,0.00,,,0.00,WUHU21623XXSP,2013-04-06 12:34:00,
2013-04-06 08:40:00,41.5,21.1,30.22,North,3,8.3,12.3,44,0.00,,,0.00,WUHU21623XXSP,2013-04-06 12:40:00,
2013-04-06 08:47:00,41.5,21.1,30.23,North,3,8.9,8.9,44,0.00,,,0.00,WUHU21623XXSP,2013-04-06 12:47:00,
2013-04-06 08:53:00,41.7,20.7,30.23,ENE,71,4.3,8.9,43,0.00,,,0.00,WUHU21623XXSP,2013-04-06 12:53:00,
2013-04-06 09:00:00,41.7,20.2,30.23,NNW,341,4.5,12.3,42,0.00,,,0.00,WUHU21623XXSP,2013-04-06 13:00:00,
2013-04-06 09:07:00,41.5,19.5,30.23,NNE,26,11.6,12.3,41,0.00,,,0.00,WUHU21623XXSP,2013-04-06 13:07:00,
2013-04-06 09:13:00,41.7,19.1,30.23,NNW,341,6.0,12.3,40,0.00,,,0.00,WUHU21623XXSP,2013-04-06 13:13:00,
2013-04-06 09:19:00,41.7,19.1,30.23,NW,318,6.9,9.2,40,0.00,,,0.00,WUHU21623XXSP,2013-04-06 13:19:00,
2013-04-06 09:25:00,41.7,19.1,30.24,North,3,6.0,8.5,40,0.00,,,0.00,WUHU21623XXSP,2013-04-06 13:25:00,
2013-04-06 09:32:00,42.1,19.5,30.24,North,3,6.3,6.3,40,0.00,,,0.00,WUHU21623XXSP,2013-04-06 13:32:00,
2013-04-06 09:38:00,42.6,20.0,30.25,NNE,26,2.5,8.7,40,0.00,,,0.00,WUHU21623XXSP,2013-04-06 13:38:00,
2013-04-06 09:45:00,43.0,20.3,30.25,North,3,6.5,12.3,40,0.00,,,0.00,WUHU21623XXSP,2013-04-06 13:45:00,
2013-04-06 09:51:00,43.3,20.4,30.25,NNW,341,6.0,8.3,40,0.00,,,0.00,WUHU21623XXSP,2013-04-06 13:51:00,
2013-04-06 09:58:00,43.9,20.4,30.25,NNW,341,4.0,6.3,39,0.00,,,0.00,WUHU21623XXSP,2013-04-06 13:58:00,
2013-04-06 10:04:00,44.6,21.1,30.25,NNE,26,7.6,7.6,39,0.00,,,0.00,WUHU21623XXSP,2013-04-06 14:04:00,
2013-04-06 10:10:00,45.3,21.1,30.26,NNW,341,4.3,7.6,38,0.00,,,0.00,WUHU21623XXSP,2013-04-06 14:10:00,
2013-04-06 10:17:00,45.9,21.4,30.26,NNW,341,6.9,7.6,38,0.00,,,0.00,WUHU21623XXSP,2013-04-06 14:17:00,
2013-04-06 10:23:00,46.2,21.2,30.26,NNW,341,2.0,6.9,37,0.00,,,0.00,WUHU21623XXSP,2013-04-06 14:23:00,
2013-04-06 10:30:00,47.1,22.0,30.26,North,3,3.4,5.1,37,0.00,,,0.00,WUHU21623XXSP,2013-04-06 14:30:00,
2013-04-06 10:36:00,47.8,22.0,30.26,NNW,341,2.2,5.4,36,0.00,,,0.00,WUHU21623XXSP,2013-04-06 14:36:00,
2013-04-06 10:43:00,48.6,22.6,30.27,NW,318,3.1,6.9,36,0.00,,,0.00,WUHU21623XXSP,2013-04-06 14:43:00,
2013-04-06 10:49:00,49.1,23.1,30.27,NNW,341,3.6,3.6,36,0.00,,,0.00,WUHU21623XXSP,2013-04-06 14:49:00,
2013-04-06 10:55:00,49.6,22.7,30.27,North,3,5.4,5.4,35,0.00,,,0.00,WUHU21623XXSP,2013-04-06 14:55:00,
2013-04-06 11:02:00,49.8,22.3,30.27,WSW,251,2.5,5.4,34,0.00,,,0.00,WUHU21623XXSP,2013-04-06 15:02:00,
2013-04-06 11:10:00,49.8,22.3,30.27,NNW,341,3.1,7.8,34,0.00,,,0.00,WUHU21623XXSP,2013-04-06 15:10:00,
2013-04-06 11:17:00,50.0,21.8,30.27,NNW,341,11.6,11.6,33,0.00,,,0.00,WUHU21623XXSP,2013-04-06 15:17:00,
2013-04-06 11:23:00,50.4,22.1,30.28,NW,318,9.6,11.6,33,0.00,,,0.00,WUHU21623XXSP,2013-04-06 15:23:00,
2013-04-06 11:30:00,50.5,21.6,30.28,NNE,26,4.7,10.5,32,0.00,,,0.00,WUHU21623XXSP,2013-04-06 15:30:00,
2013-04-06 11:36:00,50.9,21.9,30.28,North,3,7.2,7.2,32,0.00,,,0.00,WUHU21623XXSP,2013-04-06 15:36:00,
2013-04-06 11:43:00,51.3,22.3,30.27,NNE,26,9.2,9.2,32,0.00,,,0.00,WUHU21623XXSP,2013-04-06 15:43:00,
2013-04-06 11:49:00,51.8,22.1,30.28,NNW,341,10.1,10.1,31,0.00,,,0.00,WUHU21623XXSP,2013-04-06 15:49:00,
2013-04-06 11:56:00,52.3,22.5,30.27,NNW,341,5.4,10.1,31,0.00,,,0.00,WUHU21623XXSP,2013-04-06 15:56:00,
2013-04-06 12:02:00,52.3,21.9,30.27,NNW,341,8.1,10.1,30,0.00,,,0.00,WUHU21623XXSP,2013-04-06 16:02:00,
2013-04-06 12:11:00,52.5,22.0,30.27,NNW,341,4.0,9.6,30,0.00,,,0.00,WUHU21623XXSP,2013-04-06 16:11:00,
2013-04-06 12:17:00,52.9,22.4,30.26,NNW,341,5.6,6.7,30,0.00,,,0.00,WUHU21623XXSP,2013-04-06 16:17:00,
2013-04-06 12:24:00,53.4,22.8,30.27,NNW,341,6.9,9.2,30,0.00,,,0.00,WUHU21623XXSP,2013-04-06 16:24:00,
2013-04-06 12:30:00,54.0,23.3,30.26,North,3,7.4,7.4,30,0.00,,,0.00,WUHU21623XXSP,2013-04-06 16:30:00,
2013-04-06 12:37:00,54.5,23.7,30.27,North,3,18.1,18.1,30,0.00,,,0.00,WUHU21623XXSP,2013-04-06 16:37:00,
2013-04-06 12:43:00,55.0,23.2,30.27,NNE,26,13.4,18.1,29,0.00,,,0.00,WUHU21623XXSP,2013-04-06 16:43:00,
2013-04-06 12:49:00,55.2,23.3,30.26,WNW,296,4.9,13.4,29,0.00,,,0.00,WUHU21623XXSP,2013-04-06 16:49:00,
2013-04-06 12:56:00,55.9,24.0,30.27,North,3,10.1,11.4,29,0.00,,,0.00,WUHU21623XXSP,2013-04-06 16:56:00,
2013-04-06 13:02:00,56.5,23.4,30.27,NNE,26,6.5,11.4,29,0.00,,,0.00,WUHU21623XXSP,2013-04-06 17:02:00,
2013-04-06 13:09:00,57.0,24.0,30.26,NNW,341,2.0,9.2,28,0.00,,,0.00,WUHU21623XXSP,2013-04-06 17:09:00,
2013-04-06 13:15:00,57.6,24.5,30.27,NNW,341,2.5,6.0,28,0.00,,,0.00,WUHU21623XXSP,2013-04-06 17:15:00,
2013-04-06 13:21:00,58.3,25.1,30.26,SE,146,1.3,6.0,28,0.00,,,0.00,WUHU21623XXSP,2013-04-06 17:21:00,
2013-04-06 13:28:00,58.8,25.6,30.26,North,3,10.1,10.1,28,0.00,,,0.00,WUHU21623XXSP,2013-04-06 17:28:00,
2013-04-06 13:34:00,59.4,25.1,30.26,SW,228,0.0,10.1,27,0.00,,,0.00,WUHU21623XXSP,2013-04-06 17:34:00,
2013-04-06 13:41:00,60.1,25.6,30.27,West,273,4.7,4.7,27,0.00,,,0.00,WUHU21623XXSP,2013-04-06 17:41:00,
2013-04-06 13:47:00,60.6,26.1,30.26,West,273,5.1,5.1,27,0.00,,,0.00,WUHU21623XXSP,2013-04-06 17:47:00,
2013-04-06 13:54:00,60.6,25.1,30.26,NW,321,2.8,6.3,26,0.00,,,0.00,WUHU21623XXSP,2013-04-06 17:54:00,
2013-04-06 14:00:00,61.0,26.4,30.26,NE,48,3.8,3.8,27,0.00,,,0.00,WUHU21623XXSP,2013-04-06 18:00:00,
2013-04-06 14:07:00,61.0,25.4,30.26,WNW,296,4.5,4.5,26,0.00,,,0.00,WUHU21623XXSP,2013-04-06 18:07:00,
2013-04-06 14:13:00,61.0,26.4,30.26,NNE,31,2.5,4.5,27,0.00,,,0.00,WUHU21623XXSP,2013-04-06 18:13:00,
2013-04-06 14:19:00,61.0,26.4,30.25,NE,48,4.3,5.4,27,0.00,,,0.00,WUHU21623XXSP,2013-04-06 18:19:00,
2013-04-06 14:26:00,60.8,25.3,30.26,ESE,116,1.8,4.5,26,0.00,,,0.00,WUHU21623XXSP,2013-04-06 18:26:00,
2013-04-06 14:32:00,60.6,25.1,30.25,SE,138,1.3,4.5,26,0.00,,,0.00,WUHU21623XXSP,2013-04-06 18:32:00,
2013-04-06 14:39:00,60.6,24.2,30.25,SW,228,7.6,7.6,25,0.00,,,0.00,WUHU21623XXSP,2013-04-06 18:39:00,
2013-04-06 14:45:00,60.4,25.0,30.25,SSW,206,9.2,13.6,26,0.00,,,0.00,WUHU21623XXSP,2013-04-06 18:45:00,
2013-04-06 14:51:00,58.8,23.6,30.25,SE,138,5.8,11.9,26,0.00,,,0.00,WUHU21623XXSP,2013-04-06 18:51:00,
2013-04-06 14:58:00,57.6,23.5,30.24,South,180,6.8,7.8,27,0.00,,,0.00,WUHU21623XXSP,2013-04-06 18:58:00,
2013-04-06 15:04:00,57.4,23.3,30.24,SW,228,4.7,7.8,27,0.00,,,0.00,WUHU21623XXSP,2013-04-06 19:04:00,
2013-04-06 15:11:00,57.4,24.3,30.24,SW,228,3.6,8.9,28,0.00,,,0.00,WUHU21623XXSP,2013-04-06 19:11:00,
2013-04-06 15:17:00,57.2,24.2,30.25,SSE,161,0.9,8.7,28,0.00,,,0.00,WUHU21623XXSP,2013-04-06 19:17:00,
2013-04-06 15:24:00,57.4,24.3,30.24,SSE,161,5.4,5.4,28,0.00,,,0.00,WUHU21623XXSP,2013-04-06 19:24:00,
2013-04-06 15:30:00,56.8,22.9,30.23,South,183,11.4,11.4,27,0.00,,,0.00,WUHU21623XXSP,2013-04-06 19:30:00,
2013-04-06 15:36:00,55.9,22.1,30.24,SSE,161,2.5,11.4,27,0.00,,,0.00,WUHU21623XXSP,2013-04-06 19:36:00,
2013-04-06 15:43:00,55.2,23.3,30.24,South,183,12.1,21.7,29,0.00,,,0.00,WUHU21623XXSP,2013-04-06 19:43:00,
2013-04-06 15:49:00,53.8,22.2,30.24,SSE,161,8.7,21.7,29,0.00,,,0.00,WUHU21623XXSP,2013-04-06 19:49:00,
2013-04-06 15:56:00,53.1,21.6,30.24,SSE,161,8.5,8.7,29,0.00,,,0.00,WUHU21623XXSP,2013-04-06 19:56:00,
2013-04-06 16:02:00,52.5,21.1,30.25,SSW,206,8.1,13.0,29,0.00,,,0.00,WUHU21623XXSP,2013-04-06 20:02:00,
2013-04-06 16:09:00,52.3,20.0,30.25,SSW,206,11.2,13.0,28,0.00,,,0.00,WUHU21623XXSP,2013-04-06 20:09:00,
2013-04-06 16:15:00,52.0,19.7,30.24,SW,228,5.4,11.2,28,0.00,,,0.00,WUHU21623XXSP,2013-04-06 20:15:00,
2013-04-06 16:22:00,52.0,19.7,30.24,South,183,17.2,17.2,28,0.00,,,0.00,WUHU21623XXSP,2013-04-06 20:22:00,
2013-04-06 16:28:00,52.0,20.6,30.25,SSW,206,14.8,17.2,29,0.00,,,0.00,WUHU21623XXSP,2013-04-06 20:28:00,
2013-04-06 16:34:00,52.2,19.8,30.25,SW,228,3.4,14.8,28,0.00,,,0.00,WUHU21623XXSP,2013-04-06 20:34:00,
2013-04-06 16:41:00,52.3,20.0,30.25,SW,228,9.6,11.2,28,0.00,,,0.00,WUHU21623XXSP,2013-04-06 20:41:00,
2013-04-06 16:47:00,52.3,20.0,30.25,SW,228,6.5,11.2,29,0.00,,,0.00,WUHU21623XXSP,2013-04-06 20:47:00,
2013-04-06 16:54:00,52.0,22.2,30.25,South,183,9.2,13.0,31,0.00,,,0.00,WUHU21623XXSP,2013-04-06 20:54:00,
2013-04-06 17:00:00,51.8,22.1,30.26,WSW,251,4.7,9.2,31,0.00,,,0.00,WUHU21623XXSP,2013-04-06 21:00:00,
2013-04-06 17:07:00,51.6,22.6,30.26,South,183,12.1,13.6,32,0.00,,,0.00,WUHU21623XXSP,2013-04-06 21:07:00,
2013-04-06 17:13:00,50.9,22.9,30.26,SSE,161,5.8,12.1,33,0.00,,,0.00,WUHU21623XXSP,2013-04-06 21:13:00,
2013-04-06 17:19:00,50.7,23.1,30.26,SSW,206,6.7,6.7,34,0.00,,,0.00,WUHU21623XXSP,2013-04-06 21:19:00,
2013-04-06 17:26:00,50.4,23.5,30.27,West,273,4.5,7.8,35,0.00,,,0.00,WUHU21623XXSP,2013-04-06 21:26:00,
2013-04-06 17:32:00,49.8,23.0,30.26,South,183,17.0,17.0,35,0.00,,,0.00,WUHU21623XXSP,2013-04-06 21:32:00,
2013-04-06 17:39:00,49.1,23.1,30.27,WSW,251,16.1,17.0,36,0.00,,,0.00,WUHU21623XXSP,2013-04-06 21:39:00,
2013-04-06 17:45:00,48.7,23.4,30.27,South,183,7.4,16.1,37,0.00,,,0.00,WUHU21623XXSP,2013-04-06 21:45:00,
2013-04-06 17:51:00,47.8,23.5,30.27,South,183,5.8,17.0,38,0.00,,,0.00,WUHU21623XXSP,2013-04-06 21:51:00,
2013-04-06 17:58:00,47.5,24.3,30.27,South,183,8.3,10.5,40,0.00,,,0.00,WUHU21623XXSP,2013-04-06 21:58:00,
2013-04-06 18:05:00,47.1,24.0,30.28,SSW,206,10.7,11.4,40,0.00,,,0.00,WUHU21623XXSP,2013-04-06 22:05:00,
2013-04-06 18:11:00,46.9,24.4,30.28,SSW,206,7.2,10.7,41,0.00,,,0.00,WUHU21623XXSP,2013-04-06 22:11:00,
2013-04-06 18:17:00,47.1,24.5,30.28,SW,228,6.9,8.9,41,0.00,,,0.00,WUHU21623XXSP,2013-04-06 22:17:00,
2013-04-06 18:24:00,47.1,25.1,30.28,SSW,206,10.3,10.3,42,0.00,,,0.00,WUHU21623XXSP,2013-04-06 22:24:00,
2013-04-06 18:30:00,46.9,25.5,30.28,SSE,168,11.1,15.2,43,0.00,,,0.00,WUHU21623XXSP,2013-04-06 22:30:00,
2013-04-06 18:37:00,46.4,25.0,30.28,South,183,2.9,15.2,43,0.00,,,0.00,WUHU21623XXSP,2013-04-06 22:37:00,
2013-04-06 18:43:00,46.2,25.4,30.28,South,183,6.9,19.2,44,0.00,,,0.00,WUHU21623XXSP,2013-04-06 22:43:00,
2013-04-06 18:49:00,46.0,25.2,30.28,SW,228,5.4,7.6,45,0.00,,,0.00,WUHU21623XXSP,2013-04-06 22:49:00,
2013-04-06 18:56:00,45.9,25.6,30.28,SSW,206,4.5,9.6,45,0.00,,,0.00,WUHU21623XXSP,2013-04-06 22:56:00,
2013-04-06 19:02:00,45.7,26.0,30.28,SSW,206,8.3,8.3,46,0.00,,,0.00,WUHU21623XXSP,2013-04-06 23:02:00,
2013-04-06 19:09:00,45.7,26.0,30.28,SSW,206,0.9,8.3,46,0.00,,,0.00,WUHU21623XXSP,2013-04-06 23:09:00,
2013-04-06 19:15:00,45.7,26.5,30.29,South,183,6.0,8.1,47,0.00,,,0.00,WUHU21623XXSP,2013-04-06 23:15:00,
2013-04-06 19:22:00,45.5,26.3,30.28,South,183,1.1,8.1,47,0.00,,,0.00,WUHU21623XXSP,2013-04-06 23:22:00,
2013-04-06 19:28:00,45.3,26.2,30.28,SSW,206,7.6,7.6,47,0.00,,,0.00,WUHU21623XXSP,2013-04-06 23:28:00,
2013-04-06 19:34:00,45.5,26.3,30.28,SSW,206,5.1,8.7,47,0.00,,,0.00,WUHU21623XXSP,2013-04-06 23:34:00,
2013-04-06 19:41:00,45.5,26.9,30.28,SW,228,4.0,8.7,48,0.00,,,0.00,WUHU21623XXSP,2013-04-06 23:41:00,
2013-04-06 19:47:00,45.3,26.7,30.29,South,183,3.4,4.0,48,0.00,,,0.00,WUHU21623XXSP,2013-04-06 23:47:00,
2013-04-06 19:54:00,45.3,26.7,30.29,SSE,161,1.6,4.0,48,0.00,,,0.00,WUHU21623XXSP,2013-04-06 23:54:00,
2013-04-06 20:00:00,45.3,26.7,30.28,WSW,251,2.9,3.8,49,0.00,,,0.00,WUHU21623XXSP,2013-04-07 00:00:00,
2013-04-06 20:06:00,45.1,27.2,30.28,South,183,6.7,6.7,49,0.00,,,0.00,WUHU21623XXSP,2013-04-07 00:06:00,
2013-04-06 20:13:00,45.0,27.5,30.29,South,183,2.5,6.7,50,0.00,,,0.00,WUHU21623XXSP,2013-04-07 00:13:00,
2013-04-06 20:19:00,44.8,27.3,30.29,SSW,206,6.3,6.3,50,0.00,,,0.00,WUHU21623XXSP,2013-04-07 00:19:00,
2013-04-06 20:28:00,44.8,27.3,30.29,South,183,3.6,6.3,50,0.00,,,0.00,WUHU21623XXSP,2013-04-07 00:28:00,
2013-04-06 20:34:00,44.8,27.3,30.29,South,183,4.9,4.9,50,0.00,,,0.00,WUHU21623XXSP,2013-04-07 00:34:00,
2013-04-06 20:43:00,44.4,27.4,30.29,SW,228,5.1,5.1,51,0.00,,,0.00,WUHU21623XXSP,2013-04-07 00:43:00,
2013-04-06 20:49:00,44.4,27.4,30.30,SSE,161,1.6,5.1,51,0.00,,,0.00,WUHU21623XXSP,2013-04-07 00:49:00,
2013-04-06 20:56:00,44.4,27.4,30.30,WSW,251,2.9,6.7,51,0.00,,,0.00,WUHU21623XXSP,2013-04-07 00:56:00,
2013-04-06 21:02:00,44.4,27.4,30.30,South,183,9.6,9.6,51,0.00,,,0.00,WUHU21623XXSP,2013-04-07 01:02:00,
2013-04-06 21:09:00,44.4,27.9,30.30,South,183,3.4,9.6,52,0.00,,,0.00,WUHU21623XXSP,2013-04-07 01:09:00,
2013-04-06 21:15:00,44.2,27.7,30.30,South,183,2.0,3.4,52,0.00,,,0.00,WUHU21623XXSP,2013-04-07 01:15:00,
2013-04-06 21:21:00,44.4,27.9,30.30,SSW,206,2.0,3.4,52,0.00,,,0.00,WUHU21623XXSP,2013-04-07 01:21:00,
2013-04-06 21:28:00,44.6,28.0,30.30,SSW,206,3.4,3.4,52,0.00,,,0.00,WUHU21623XXSP,2013-04-07 01:28:00,
2013-04-06 21:34:00,45.0,27.9,30.30,South,183,1.8,3.4,51,0.00,,,0.00,WUHU21623XXSP,2013-04-07 01:34:00,
2013-04-06 21:41:00,45.0,28.4,30.30,SSW,198,3.0,4.0,52,0.00,,,0.00,WUHU21623XXSP,2013-04-07 01:41:00,
2013-04-06 21:48:00,45.0,27.9,30.30,SSE,161,2.2,4.0,51,0.00,,,0.00,WUHU21623XXSP,2013-04-07 01:48:00,
2013-04-06 21:54:00,45.0,28.4,30.30,SSE,161,1.8,3.1,52,0.00,,,0.00,WUHU21623XXSP,2013-04-07 01:54:00,
2013-04-06 22:00:00,45.0,28.4,30.30,South,183,3.1,3.1,52,0.00,,,0.00,WUHU21623XXSP,2013-04-07 02:00:00,
2013-04-06 22:06:00,44.8,28.2,30.30,South,183,3.4,3.4,52,0.00,,,0.00,WUHU21623XXSP,2013-04-07 02:06:00,
2013-04-06 22:13:00,44.6,28.5,30.30,South,183,2.2,4.5,53,0.00,,,0.00,WUHU21623XXSP,2013-04-07 02:13:00,
2013-04-06 22:20:00,44.4,28.3,30.31,South,183,1.8,2.9,53,0.00,,,0.00,WUHU21623XXSP,2013-04-07 02:20:00,
2013-04-06 22:26:00,44.4,28.3,30.30,WSW,251,3.8,3.8,53,0.00,,,0.00,WUHU21623XXSP,2013-04-07 02:26:00,
2013-04-06 22:32:00,45.0,28.4,30.30,SW,228,2.9,3.8,52,0.00,,,0.00,WUHU21623XXSP,2013-04-07 02:32:00,
2013-04-06 22:39:00,45.0,28.8,30.30,South,183,3.8,3.8,53,0.00,,,0.00,WUHU21623XXSP,2013-04-07 02:39:00,
2013-04-06 22:45:00,45.0,28.8,30.30,SSW,206,4.7,4.7,53,0.00,,,0.00,WUHU21623XXSP,2013-04-07 02:45:00,
2013-04-06 22:52:00,44.8,28.7,30.30,SW,228,2.9,4.7,53,0.00,,,0.00,WUHU21623XXSP,2013-04-07 02:52:00,
2013-04-06 22:58:00,45.0,28.8,30.30,SSW,206,2.5,3.1,53,0.00,,,0.00,WUHU21623XXSP,2013-04-07 02:58:00,
2013-04-06 23:04:00,45.0,28.8,30.31,SSW,206,2.0,2.5,53,0.00,,,0.00,WUHU21623XXSP,2013-04-07 03:04:00,
2013-04-06 23:11:00,45.0,28.8,30.30,SW,228,1.8,5.1,53,0.00,,,0.00,WUHU21623XXSP,2013-04-07 03:11:00,
2013-04-06 23:17:00,45.0,29.3,30.31,South,183,2.9,4.0,54,0.00,,,0.00,WUHU21623XXSP,2013-04-07 03:17:00,
2013-04-06 23:26:00,45.0,29.3,30.30,South,183,3.4,4.7,54,0.00,,,0.00,WUHU21623XXSP,2013-04-07 03:26:00,
2013-04-06 23:32:00,45.0,29.3,30.30,South,183,1.3,3.4,54,0.00,,,0.00,WUHU21623XXSP,2013-04-07 03:32:00,
2013-04-06 23:39:00,45.0,29.3,30.30,South,183,1.6,1.8,54,0.00,,,0.00,WUHU21623XXSP,2013-04-07 03:39:00,
2013-04-06 23:45:00,44.8,29.1,30.30,SSW,206,0.0,3.6,54,0.00,,,0.00,WUHU21623XXSP,2013-04-07 03:45:00,
2013-04-06 23:51:00,45.0,29.3,30.29,SSE,161,1.1,3.6,54,0.00,,,0.00,WUHU21623XXSP,2013-04-07 03:51:00,
2013-04-06 23:58:00,45.1,29.4,30.30,South,183,1.8,2.2,54,0.00,,,0.00,WUHU21623XXSP,2013-04-07 03:58:00,